createdAt,value
2019-04-04T06:27:33.219Z,196.00
2019-04-04T06:28:33.230Z,212.00
2019-04-04T06:29:33.245Z,228.00
2019-04-04T06:30:43.238Z,240.00
2019-04-04T06:31:33.272Z,252.00
2019-04-04T06:32:33.280Z,264.00
2019-04-04T06:33:35.248Z,276.00
2019-04-04T06:34:33.813Z,300.00
2019-04-04T06:35:33.313Z,320.00
2019-04-04T06:36:33.322Z,332.00
2019-04-04T06:37:34.451Z,324.00
2019-04-04T06:39:33.366Z,312.00
2019-04-04T06:40:35.230Z,320.00
2019-04-04T06:41:34.708Z,340.00
2019-04-04T06:42:36.067Z,360.00
2019-04-04T06:43:33.411Z,392.00
2019-04-04T06:44:33.430Z,452.00
2019-04-04T06:45:33.872Z,524.00
2019-04-04T06:46:33.469Z,584.00
2019-04-04T06:47:33.625Z,624.00
2019-04-04T06:48:33.983Z,628.00
2019-04-04T06:49:35.505Z,596.00
2019-04-04T06:50:33.491Z,568.00
2019-04-04T06:51:33.619Z,536.00
2019-04-04T06:52:33.529Z,484.00
2019-04-04T06:53:33.531Z,448.00
2019-04-04T06:54:33.540Z,452.00
2019-04-04T06:55:37.377Z,464.00
2019-04-04T06:56:34.042Z,456.00
2019-04-04T06:57:36.156Z,416.00
2019-04-04T06:58:33.599Z,368.00
2019-04-04T06:59:33.988Z,340.00
2019-04-04T07:00:33.612Z,336.00
2019-04-04T07:01:35.138Z,352.00
2019-04-04T07:02:33.659Z,356.00
2019-04-04T07:03:33.699Z,348.00
2019-04-04T07:04:36.089Z,336.00
2019-04-04T07:05:33.672Z,328.00
2019-04-04T07:06:33.683Z,328.00
2019-04-04T07:07:33.726Z,328.00
2019-04-04T07:08:33.708Z,336.00
2019-04-04T07:09:33.721Z,356.00
2019-04-04T07:10:33.740Z,368.00
2019-04-04T07:11:35.105Z,380.00
2019-04-04T07:12:33.759Z,388.00
2019-04-04T07:13:42.441Z,396.00
2019-04-04T07:14:45.201Z,404.00
2019-04-04T07:15:45.868Z,408.00
2019-04-04T07:16:34.205Z,400.00
2019-04-04T07:17:33.819Z,400.00
2019-04-04T07:18:33.853Z,404.00
2019-04-04T07:19:33.843Z,408.00
2019-04-04T07:20:33.862Z,412.00
2019-04-04T07:21:33.876Z,420.00
2019-04-04T07:22:33.878Z,436.00
2019-04-04T07:23:33.903Z,456.00
2019-04-04T07:24:34.073Z,484.00
2019-04-04T07:25:35.835Z,508.00
2019-04-04T07:26:33.927Z,516.00
2019-04-04T07:27:33.955Z,516.00
2019-04-04T07:28:36.544Z,520.00
2019-04-04T07:29:36.432Z,532.00
2019-04-04T07:30:35.463Z,544.00
2019-04-04T07:31:38.315Z,572.00
2019-04-04T07:32:35.222Z,596.00
2019-04-04T07:33:34.014Z,620.00
2019-04-04T07:34:34.041Z,632.00
2019-04-04T07:35:34.051Z,640.00
2019-04-04T07:36:34.059Z,648.00
2019-04-04T07:37:34.083Z,640.00
2019-04-04T07:38:35.095Z,624.00
2019-04-04T07:39:34.187Z,620.00
2019-04-04T07:40:36.319Z,624.00
2019-04-04T07:41:34.111Z,632.00
2019-04-04T07:42:34.117Z,636.00
2019-04-04T07:43:34.494Z,652.00
2019-04-04T07:44:34.921Z,668.00
2019-04-04T07:45:34.176Z,684.00
2019-04-04T07:46:34.820Z,684.00
2019-04-04T07:47:34.518Z,664.00
2019-04-04T07:48:34.282Z,656.00
2019-04-04T07:49:34.219Z,688.00
2019-04-04T07:50:35.208Z,776.00
2019-04-04T07:51:36.590Z,892.00
2019-04-04T07:52:36.795Z,980.00
2019-04-04T07:54:37.995Z,1036.00
2019-04-04T07:57:35.186Z,1388.00
2019-04-04T07:59:34.502Z,1400.00
2019-04-04T08:00:34.370Z,1264.00
2019-04-04T08:01:35.034Z,1108.00
2019-04-04T08:03:34.419Z,904.00
2019-04-04T08:04:34.686Z,880.00
2019-04-04T08:05:34.598Z,880.00
2019-04-04T08:06:34.436Z,880.00
2019-04-04T08:07:34.498Z,876.00
2019-04-04T08:08:34.849Z,856.00
2019-04-04T08:09:34.460Z,832.00
2019-04-04T08:10:34.476Z,804.00
2019-04-04T08:12:34.635Z,748.00
2019-04-04T08:13:34.511Z,712.00
2019-04-04T08:14:34.529Z,688.00
2019-04-04T08:16:35.875Z,684.00
2019-04-04T08:17:34.546Z,688.00
2019-04-04T08:18:34.559Z,700.00
2019-04-04T08:19:34.595Z,696.00
2019-04-04T08:20:35.669Z,692.00
2019-04-04T08:21:36.204Z,680.00
2019-04-04T08:22:34.883Z,664.00
2019-04-04T08:24:34.661Z,632.00
2019-04-04T08:25:34.737Z,628.00
2019-04-04T08:26:34.789Z,632.00
2019-04-04T08:28:34.817Z,636.00
2019-04-04T08:29:34.760Z,636.00
2019-04-04T08:30:35.295Z,636.00
2019-04-04T08:31:34.747Z,640.00
2019-04-04T08:32:34.730Z,652.00
2019-04-04T08:33:34.877Z,676.00
2019-04-04T08:34:36.397Z,708.00
2019-04-04T08:35:34.794Z,744.00
2019-04-04T08:36:37.912Z,780.00
2019-04-04T08:37:34.828Z,792.00
2019-04-04T08:38:35.291Z,776.00
2019-04-04T08:39:35.391Z,752.00
2019-04-04T08:40:34.846Z,760.00
2019-04-04T08:41:35.079Z,772.00
2019-04-04T08:42:34.868Z,812.00
2019-04-04T08:43:34.890Z,868.00
2019-04-04T08:44:35.293Z,916.00
2019-04-04T08:45:34.893Z,964.00
2019-04-04T08:47:36.033Z,1016.00
2019-04-04T08:48:35.638Z,1048.00
2019-04-04T08:49:34.938Z,1084.00
2019-04-04T08:51:34.960Z,1036.00
2019-04-04T08:52:34.969Z,972.00
2019-04-04T08:53:40.159Z,956.00
2019-04-04T08:54:35.087Z,996.00
2019-04-04T08:55:35.049Z,1064.00
2019-04-04T08:56:35.329Z,1144.00
2019-04-04T08:57:35.047Z,1196.00
2019-04-04T08:58:35.066Z,1208.00
2019-04-04T09:00:35.082Z,1208.00
2019-04-04T09:01:35.121Z,1220.00
2019-04-04T09:02:35.284Z,1240.00
2019-04-04T09:03:35.113Z,1292.00
2019-04-04T09:04:35.371Z,1364.00
2019-04-04T09:05:35.231Z,1368.00
2019-04-04T09:06:35.140Z,1340.00
2019-04-04T09:07:35.884Z,1360.00
2019-04-04T09:08:35.513Z,1428.00
2019-04-04T09:09:35.260Z,1496.00
2019-04-04T09:10:35.204Z,1540.00
2019-04-04T09:11:35.288Z,1572.00
2019-04-04T09:12:35.421Z,1628.00
2019-04-04T09:13:35.239Z,1752.00
2019-04-04T09:14:35.249Z,1888.00
2019-04-04T09:15:35.266Z,1964.00
2019-04-04T09:16:35.263Z,1916.00
2019-04-04T09:17:35.283Z,1752.00
2019-04-04T09:18:35.338Z,1576.00
2019-04-04T09:19:35.308Z,1476.00
2019-04-04T09:20:35.343Z,1452.00
2019-04-04T09:21:35.387Z,1472.00
2019-04-04T09:22:35.354Z,1552.00
2019-04-04T09:23:35.629Z,1672.00
2019-04-04T09:24:36.109Z,1812.00
2019-04-04T09:25:35.682Z,1948.00
2019-04-04T09:26:35.389Z,2028.00
2019-04-04T09:27:35.691Z,2032.00
2019-04-04T09:28:35.434Z,1996.00
2019-04-04T09:29:35.498Z,1932.00
2019-04-04T09:30:35.459Z,1840.00
2019-04-04T09:31:35.470Z,1760.00
2019-04-04T09:32:35.482Z,1704.00
2019-04-04T09:33:35.530Z,1664.00
2019-04-04T09:34:35.504Z,1616.00
2019-04-04T09:35:35.521Z,1548.00
2019-04-04T09:36:35.539Z,1496.00
2019-04-04T09:37:35.549Z,1532.00
2019-04-04T09:38:35.547Z,1628.00
2019-04-04T09:39:35.560Z,1772.00
2019-04-04T09:40:35.572Z,1956.00
2019-04-04T09:41:35.587Z,2152.00
2019-04-04T09:42:35.594Z,2344.00
2019-04-04T09:43:35.603Z,2524.00
2019-04-04T09:44:35.619Z,2692.00
2019-04-04T09:45:35.637Z,2792.00
2019-04-04T09:46:35.641Z,2768.00
2019-04-04T09:47:35.818Z,2692.00
2019-04-04T09:48:35.799Z,2604.00
2019-04-04T09:49:35.855Z,2444.00
2019-04-04T09:50:35.699Z,2176.00
2019-04-04T09:51:35.708Z,1960.00
2019-04-04T09:52:35.722Z,1880.00
2019-04-04T09:54:36.047Z,2164.00
2019-04-04T09:55:35.767Z,2304.00
2019-04-04T09:56:35.789Z,2316.00
2019-04-04T09:57:35.784Z,2292.00
2019-04-04T09:58:35.813Z,2324.00
2019-04-04T09:59:35.811Z,2440.00
2019-04-04T10:00:35.825Z,2628.00
2019-04-04T10:01:35.849Z,2844.00
2019-04-04T10:02:35.848Z,2900.00
2019-04-04T10:03:35.867Z,2888.00
2019-04-04T10:04:35.887Z,2824.00
2019-04-04T10:05:35.890Z,2672.00
2019-04-04T10:06:35.903Z,2596.00
2019-04-04T10:07:35.922Z,2604.00
2019-04-04T10:08:38.677Z,2544.00
2019-04-04T10:09:35.967Z,2464.00
2019-04-04T10:10:35.959Z,2420.00
2019-04-04T10:11:35.997Z,2448.00
2019-04-04T10:12:36.008Z,2516.00
2019-04-04T10:13:36.004Z,2488.00
2019-04-04T10:14:36.010Z,2388.00
2019-04-04T10:15:36.019Z,2376.00
2019-04-04T10:16:36.048Z,2460.00
2019-04-04T10:17:36.095Z,2516.00
2019-04-04T10:18:36.184Z,2456.00
2019-04-04T10:19:36.084Z,2284.00
2019-04-04T10:20:36.095Z,2088.00
2019-04-04T10:21:36.104Z,1916.00
2019-04-04T10:22:36.123Z,1716.00
2019-04-04T10:23:36.509Z,1456.00
2019-04-04T10:24:36.166Z,1284.00
2019-04-04T10:25:36.150Z,1228.00
2019-04-04T10:27:36.321Z,1368.00
2019-04-04T10:28:36.213Z,1472.00
2019-04-04T10:29:36.216Z,1536.00
2019-04-04T10:30:36.239Z,1540.00
2019-04-04T10:31:36.252Z,1476.00
2019-04-04T10:32:36.262Z,1420.00
2019-04-04T10:33:36.265Z,1408.00
2019-04-04T10:34:36.302Z,1400.00
2019-04-04T10:35:36.321Z,1392.00
2019-04-04T10:36:36.305Z,1408.00
2019-04-04T10:37:36.342Z,1396.00
2019-04-04T10:38:36.330Z,1340.00
2019-04-04T10:39:36.489Z,1280.00
2019-04-04T10:40:36.342Z,1216.00
2019-04-04T10:41:36.365Z,1140.00
2019-04-04T10:42:36.372Z,1088.00
2019-04-04T10:43:36.377Z,1076.00
2019-04-04T10:44:37.181Z,1100.00
2019-04-04T10:45:36.427Z,1156.00
2019-04-04T10:46:36.417Z,1224.00
2019-04-04T10:47:36.426Z,1300.00
2019-04-04T10:48:36.443Z,1344.00
2019-04-04T10:49:36.461Z,1364.00
2019-04-04T10:50:36.481Z,1388.00
2019-04-04T10:51:36.483Z,1448.00
2019-04-04T10:52:36.495Z,1520.00
2019-04-04T10:53:36.512Z,1588.00
2019-04-04T10:54:36.530Z,1652.00
2019-04-04T10:55:36.583Z,1668.00
2019-04-04T10:56:36.547Z,1656.00
2019-04-04T10:57:36.560Z,1628.00
2019-04-04T10:58:36.570Z,1608.00
2019-04-04T10:59:36.603Z,1656.00
2019-04-04T11:00:36.598Z,1764.00
2019-04-04T11:01:36.606Z,1868.00
2019-04-04T11:02:36.628Z,2016.00
2019-04-04T11:03:36.698Z,2124.00
2019-04-04T11:04:36.649Z,2204.00
2019-04-04T11:05:36.660Z,2264.00
2019-04-04T11:06:36.682Z,2380.00
2019-04-04T11:07:36.723Z,2492.00
2019-04-04T11:08:36.701Z,2596.00
2019-04-04T11:09:42.132Z,2604.00
2019-04-04T11:10:36.729Z,2476.00
2019-04-04T11:11:36.739Z,2352.00
2019-04-04T11:12:36.753Z,2264.00
2019-04-04T11:13:36.775Z,2276.00
2019-04-04T11:14:36.781Z,2436.00
2019-04-04T11:15:36.791Z,2660.00
2019-04-04T11:16:36.805Z,2792.00
2019-04-04T11:17:36.819Z,2960.00
2019-04-04T11:18:36.839Z,3204.00
2019-04-04T11:19:36.840Z,3456.00
2019-04-04T11:20:36.856Z,3700.00
2019-04-04T11:21:36.898Z,3832.00
2019-04-04T11:22:36.883Z,3956.00
2019-04-04T11:23:36.907Z,4140.00
2019-04-04T11:24:36.942Z,4124.00
2019-04-04T11:25:36.926Z,3804.00
2019-04-04T11:26:36.945Z,3504.00
2019-04-04T11:27:36.950Z,3036.00
2019-04-04T11:28:36.959Z,2856.00
2019-04-04T11:29:36.976Z,2832.00
2019-04-04T11:31:37.004Z,2580.00
2019-04-04T11:32:37.874Z,2356.00
2019-04-04T11:33:37.031Z,2144.00
2019-04-04T11:34:37.062Z,2000.00
2019-04-04T11:35:37.062Z,1832.00
2019-04-04T11:36:37.085Z,1680.00
2019-04-04T11:37:37.088Z,1636.00
2019-04-04T11:38:37.093Z,1720.00
2019-04-04T11:39:37.118Z,1884.00
2019-04-04T11:40:37.118Z,1920.00
2019-04-04T11:41:37.141Z,1872.00
2019-04-04T11:42:37.141Z,1864.00
2019-04-04T11:43:37.169Z,1816.00
2019-04-04T11:44:37.167Z,1752.00
2019-04-04T11:45:38.158Z,1688.00
2019-04-04T11:46:37.295Z,1608.00
2019-04-04T11:47:37.225Z,1484.00
2019-04-04T11:48:37.229Z,1392.00
2019-04-04T11:49:37.234Z,1352.00
2019-04-04T11:50:39.623Z,1312.00
2019-04-04T11:51:37.431Z,1244.00
2019-04-04T11:52:37.277Z,1188.00
2019-04-04T11:53:37.292Z,1148.00
2019-04-04T11:54:37.302Z,1136.00
2019-04-04T11:55:37.329Z,1168.00
2019-04-04T11:56:37.345Z,1220.00
2019-04-04T11:57:37.349Z,1272.00
2019-04-04T11:58:37.452Z,1316.00
2019-04-04T11:59:37.398Z,1324.00
2019-04-04T12:00:37.397Z,1348.00
2019-04-04T12:01:37.393Z,1344.00
2019-04-04T12:02:37.421Z,1320.00
2019-04-04T12:03:37.432Z,1336.00
2019-04-04T12:04:37.463Z,1344.00
2019-04-04T12:05:37.450Z,1252.00
2019-04-04T12:06:37.461Z,1120.00
2019-04-04T12:07:38.478Z,1084.00
2019-04-04T12:08:37.477Z,1140.00
2019-04-04T12:09:37.504Z,1216.00
2019-04-04T12:10:37.505Z,1248.00
2019-04-04T12:11:37.711Z,1248.00
2019-04-04T12:12:38.022Z,1260.00
2019-04-04T12:13:37.689Z,1292.00
2019-04-04T12:14:37.749Z,1328.00
2019-04-04T12:15:37.574Z,1352.00
2019-04-04T12:16:37.773Z,1368.00
2019-04-04T12:17:37.597Z,1392.00
2019-04-04T12:18:37.606Z,1428.00
2019-04-04T12:20:37.644Z,1372.00
2019-04-04T12:21:37.653Z,1316.00
2019-04-04T12:22:37.661Z,1280.00
2019-04-04T12:23:37.679Z,1332.00
2019-04-04T12:24:37.684Z,1444.00
2019-04-04T12:25:37.710Z,1532.00
2019-04-04T12:26:38.299Z,1584.00
2019-04-04T12:27:37.743Z,1688.00
2019-04-04T12:28:37.741Z,1824.00
2019-04-04T12:29:37.775Z,1904.00
2019-04-04T12:30:37.794Z,1928.00
2019-04-04T12:31:37.790Z,1864.00
2019-04-04T12:32:37.793Z,1792.00
2019-04-04T12:33:37.800Z,1836.00
2019-04-04T12:34:37.812Z,1868.00
2019-04-04T12:35:37.826Z,1844.00
2019-04-04T12:36:37.844Z,1816.00
2019-04-04T12:37:37.857Z,1744.00
2019-04-04T12:38:37.873Z,1728.00
2019-04-04T12:39:37.887Z,1776.00
2019-04-04T12:40:37.939Z,1772.00
2019-04-04T12:41:37.904Z,1760.00
2019-04-04T12:42:37.917Z,1784.00
2019-04-04T12:43:37.934Z,1880.00
2019-04-04T12:44:37.944Z,2044.00
2019-04-04T12:45:37.967Z,2180.00
2019-04-04T12:46:37.974Z,2176.00
2019-04-04T12:47:37.983Z,2084.00
2019-04-04T12:48:38.017Z,2068.00
2019-04-04T12:49:38.008Z,2116.00
2019-04-04T12:50:38.023Z,2228.00
2019-04-04T12:51:38.037Z,2380.00
2019-04-04T12:52:38.050Z,2352.00
2019-04-04T12:53:38.063Z,2132.00
2019-04-04T12:54:38.080Z,1964.00
2019-04-04T12:55:38.091Z,2012.00
2019-04-04T12:56:38.105Z,2080.00
2019-04-04T12:57:38.120Z,2092.00
2019-04-04T12:58:38.123Z,2076.00
2019-04-04T12:59:38.136Z,2192.00
2019-04-04T13:00:38.152Z,2216.00
2019-04-04T13:01:38.168Z,2072.00
2019-04-04T13:02:38.185Z,1936.00
2019-04-04T13:03:38.189Z,1904.00
2019-04-04T13:04:38.199Z,1980.00
2019-04-04T13:05:38.222Z,2084.00
2019-04-04T13:06:38.245Z,2164.00
2019-04-04T13:07:38.241Z,2120.00
2019-04-04T13:08:38.289Z,2020.00
2019-04-04T13:09:38.274Z,1896.00
2019-04-04T13:10:38.285Z,1808.00
2019-04-04T13:11:38.302Z,1572.00
2019-04-04T13:12:38.303Z,1288.00
2019-04-04T13:13:38.515Z,1012.00
2019-04-04T13:14:38.335Z,852.00
2019-04-04T13:15:38.363Z,788.00
2019-04-04T13:16:38.360Z,708.00
2019-04-04T13:17:38.380Z,636.00
2019-04-04T13:18:38.400Z,556.00
2019-04-04T13:19:38.403Z,496.00
2019-04-04T13:20:39.127Z,484.00
2019-04-04T13:21:38.431Z,516.00
2019-04-04T13:22:38.440Z,576.00
2019-04-04T13:23:38.448Z,672.00
2019-04-04T13:24:38.486Z,768.00
2019-04-04T13:25:39.010Z,904.00
2019-04-04T13:26:38.506Z,1048.00
2019-04-04T13:27:38.508Z,1208.00
2019-04-04T13:28:38.535Z,1356.00
2019-04-04T13:29:38.567Z,1500.00
2019-04-04T13:30:38.549Z,1588.00
2019-04-04T13:31:39.101Z,1600.00
2019-04-04T13:32:38.665Z,1732.00
2019-04-04T13:33:38.604Z,1860.00
2019-04-04T13:34:38.597Z,1880.00
2019-04-04T13:35:38.638Z,1820.00
2019-04-04T13:36:38.614Z,1656.00
2019-04-04T13:37:39.773Z,1568.00
2019-04-04T13:38:38.643Z,1528.00
2019-04-04T13:39:38.654Z,1348.00
2019-04-04T13:40:45.176Z,1100.00
2019-04-04T13:41:38.688Z,912.00
2019-04-04T13:42:38.720Z,780.00
2019-04-04T13:43:38.830Z,708.00
2019-04-04T13:44:38.731Z,656.00
2019-04-04T13:45:38.931Z,616.00
2019-04-04T13:46:38.801Z,588.00
2019-04-04T13:47:40.321Z,580.00
2019-04-04T13:48:38.768Z,560.00
2019-04-04T13:49:38.779Z,544.00
2019-04-04T13:50:39.785Z,540.00
2019-04-04T13:51:38.828Z,540.00
2019-04-04T13:52:38.828Z,560.00
2019-04-04T13:53:41.275Z,548.00
2019-04-04T13:54:38.891Z,544.00
2019-04-04T13:55:39.369Z,528.00
2019-04-04T13:56:38.886Z,528.00
2019-04-04T13:57:39.399Z,532.00
2019-04-04T13:58:38.944Z,556.00
2019-04-04T13:59:38.935Z,588.00
2019-04-04T14:00:38.923Z,632.00
2019-04-04T14:01:41.868Z,676.00
2019-04-04T14:02:38.972Z,692.00
2019-04-04T14:03:38.989Z,700.00
2019-04-04T14:04:38.977Z,704.00
2019-04-04T14:05:38.988Z,720.00
2019-04-04T14:06:38.996Z,736.00
2019-04-04T14:07:39.004Z,732.00
2019-04-04T14:08:39.578Z,724.00
2019-04-04T14:09:39.043Z,736.00
2019-04-04T14:10:39.084Z,772.00
2019-04-04T14:11:41.245Z,808.00
2019-04-04T14:12:39.072Z,832.00
2019-04-04T14:13:39.139Z,836.00
2019-04-04T14:14:39.097Z,844.00
2019-04-04T14:15:39.103Z,868.00
2019-04-04T14:16:39.121Z,860.00
2019-04-04T14:17:39.163Z,836.00
2019-04-04T14:18:40.273Z,800.00
2019-04-04T14:19:39.177Z,760.00
2019-04-04T14:20:39.189Z,720.00
2019-04-04T14:21:39.202Z,680.00
2019-04-04T14:22:39.203Z,636.00
2019-04-04T14:23:39.224Z,600.00
2019-04-04T14:24:39.226Z,576.00
2019-04-04T14:25:39.231Z,580.00
2019-04-04T14:26:39.633Z,592.00
2019-04-04T14:27:39.267Z,608.00
2019-04-04T14:28:39.265Z,620.00
2019-04-04T14:29:39.278Z,636.00
2019-04-04T14:30:39.296Z,644.00
2019-04-04T14:31:39.312Z,624.00
2019-04-04T14:32:39.315Z,608.00
2019-04-04T14:33:39.348Z,596.00
2019-04-04T14:34:39.351Z,584.00
2019-04-04T14:35:39.367Z,540.00
2019-04-04T14:36:39.379Z,508.00
2019-04-04T14:37:39.387Z,524.00
2019-04-04T14:38:39.403Z,552.00
2019-04-04T14:39:39.415Z,556.00
2019-04-04T14:40:40.055Z,556.00
2019-04-04T14:41:39.988Z,544.00
2019-04-04T14:42:39.855Z,528.00
2019-04-04T14:43:39.451Z,552.00
2019-04-04T14:44:39.480Z,616.00
2019-04-04T14:45:40.606Z,676.00
2019-04-04T14:46:39.985Z,672.00
2019-04-04T14:47:39.532Z,644.00
2019-04-04T14:48:42.037Z,608.00
2019-04-04T14:49:39.525Z,604.00
2019-04-04T14:50:39.565Z,656.00
2019-04-04T14:51:39.553Z,748.00
2019-04-04T14:52:39.870Z,824.00
2019-04-04T14:53:39.589Z,844.00
2019-04-04T14:54:39.619Z,836.00
2019-04-04T14:55:39.594Z,824.00
2019-04-04T14:56:39.618Z,816.00
2019-04-04T14:57:39.634Z,824.00
2019-04-04T14:58:39.635Z,828.00
2019-04-04T14:59:39.657Z,820.00
2019-04-04T15:00:39.683Z,808.00
2019-04-04T15:01:39.673Z,816.00
2019-04-04T15:02:39.686Z,828.00
2019-04-04T15:03:42.055Z,820.00
2019-04-04T15:04:39.719Z,792.00
2019-04-04T15:05:39.728Z,768.00
2019-04-04T15:06:39.735Z,736.00
2019-04-04T15:07:39.762Z,684.00
2019-04-04T15:08:39.761Z,620.00
2019-04-04T15:09:39.794Z,560.00
2019-04-04T15:10:39.804Z,532.00
2019-04-04T15:11:39.799Z,524.00
2019-04-04T15:12:39.808Z,532.00
2019-04-04T15:13:39.822Z,544.00
2019-04-04T15:14:39.834Z,536.00
2019-04-04T15:15:39.854Z,520.00
2019-04-04T15:16:39.862Z,516.00
2019-04-04T15:17:39.872Z,524.00
2019-04-04T15:18:39.885Z,548.00
2019-04-04T15:19:39.897Z,568.00
2019-04-04T15:20:39.907Z,588.00
2019-04-04T15:21:39.922Z,596.00
2019-04-04T15:22:39.930Z,600.00
2019-04-04T15:23:39.963Z,600.00
2019-04-04T15:24:39.954Z,600.00
2019-04-04T15:25:39.989Z,588.00
2019-04-04T15:26:40.036Z,568.00
2019-04-04T15:27:40.016Z,532.00
2019-04-04T15:28:40.035Z,492.00
2019-04-04T15:29:40.026Z,452.00
2019-04-04T15:30:40.042Z,416.00
2019-04-04T15:31:40.047Z,380.00
2019-04-04T15:32:40.060Z,348.00
2019-04-04T15:33:40.086Z,308.00
2019-04-04T15:34:40.081Z,268.00
2019-04-04T15:35:40.143Z,240.00
2019-04-04T15:36:40.329Z,232.00
2019-04-04T15:37:40.121Z,244.00
2019-04-04T15:38:40.179Z,252.00
2019-04-04T15:39:40.150Z,244.00
2019-04-04T15:40:40.155Z,232.00
2019-04-04T15:41:40.228Z,224.00
2019-04-04T15:42:40.553Z,220.00
2019-04-04T15:43:40.215Z,216.00
2019-04-04T15:44:40.208Z,228.00
2019-04-04T15:45:40.220Z,248.00
2019-04-04T15:46:40.240Z,280.00
2019-04-04T15:47:40.244Z,308.00
2019-04-04T15:48:40.260Z,340.00
2019-04-04T15:49:40.268Z,356.00
2019-04-04T15:50:40.289Z,356.00
2019-04-04T15:51:40.294Z,352.00
2019-04-04T15:52:40.311Z,328.00
2019-04-04T15:53:40.317Z,296.00
2019-04-04T15:54:40.328Z,264.00
2019-04-04T15:55:40.345Z,244.00
2019-04-04T15:56:40.484Z,236.00
2019-04-04T15:57:40.375Z,248.00
2019-04-04T15:58:40.397Z,256.00
2019-04-04T15:59:40.399Z,260.00
2019-04-04T16:00:40.403Z,264.00
2019-04-04T16:01:40.417Z,272.00
2019-04-04T16:02:40.429Z,288.00
2019-04-04T16:03:40.502Z,308.00
2019-04-04T16:05:40.476Z,348.00
2019-04-04T16:06:40.477Z,356.00
2019-04-04T16:07:40.551Z,352.00
2019-04-04T16:08:40.535Z,356.00
2019-04-04T16:09:40.657Z,372.00
2019-04-04T16:10:40.526Z,372.00
2019-04-04T16:11:49.472Z,380.00
2019-04-04T16:12:40.552Z,388.00
2019-04-04T16:13:40.565Z,396.00
2019-04-04T16:14:40.598Z,412.00
2019-04-04T16:15:40.586Z,420.00
2019-04-04T16:16:40.598Z,420.00
2019-04-04T16:17:40.663Z,400.00
2019-04-04T16:18:40.623Z,380.00
2019-04-04T16:19:40.636Z,364.00
2019-04-04T16:20:40.667Z,356.00
2019-04-04T16:21:40.670Z,344.00
2019-04-04T16:22:40.674Z,336.00
2019-04-04T16:23:40.687Z,328.00
2019-04-04T16:24:40.712Z,324.00
2019-04-04T16:25:40.714Z,320.00
2019-04-04T16:26:40.740Z,320.00
2019-04-04T16:27:40.736Z,308.00
2019-04-04T16:28:40.755Z,304.00
2019-04-04T16:29:40.783Z,300.00
2019-04-04T16:30:40.776Z,312.00
2019-04-04T16:31:40.784Z,332.00
2019-04-04T16:32:40.797Z,352.00
2019-04-04T16:33:40.808Z,352.00
2019-04-04T16:34:40.818Z,340.00
2019-04-04T16:35:40.842Z,316.00
2019-04-04T16:36:40.845Z,284.00
2019-04-04T16:37:40.854Z,248.00
2019-04-04T16:38:40.932Z,224.00
2019-04-04T16:39:41.511Z,220.00
2019-04-04T16:40:40.909Z,220.00
2019-04-04T16:41:40.947Z,216.00
2019-04-04T16:42:40.931Z,216.00
2019-04-04T16:43:40.942Z,208.00
2019-04-04T16:44:40.944Z,204.00
2019-04-04T16:45:40.967Z,192.00
2019-04-04T16:46:41.015Z,176.00
2019-04-04T16:47:41.001Z,168.00
2019-04-04T16:48:40.990Z,180.00
2019-04-04T16:49:41.008Z,204.00
2019-04-04T16:50:41.012Z,212.00
2019-04-04T16:51:41.026Z,216.00
2019-04-04T16:52:41.040Z,216.00
2019-04-04T16:53:41.055Z,216.00
2019-04-04T16:54:41.905Z,220.00
2019-04-04T16:55:41.099Z,232.00
2019-04-04T16:56:41.085Z,248.00
2019-04-04T16:57:43.273Z,268.00
2019-04-04T16:58:41.118Z,284.00
2019-04-04T16:59:41.137Z,288.00
2019-04-04T17:00:41.133Z,284.00
2019-04-04T17:01:41.438Z,280.00
2019-04-04T17:02:41.166Z,272.00
2019-04-04T17:03:41.174Z,264.00
2019-04-04T17:04:42.963Z,256.00
2019-04-04T17:05:41.196Z,252.00
2019-04-04T17:06:41.231Z,248.00
2019-04-04T17:07:41.220Z,256.00
2019-04-04T17:08:41.222Z,284.00
2019-04-04T17:09:41.268Z,300.00
2019-04-04T17:10:41.257Z,300.00
2019-04-04T17:11:41.262Z,284.00
2019-04-04T17:12:41.293Z,264.00
2019-04-04T17:14:41.296Z,232.00
2019-04-04T17:15:41.312Z,232.00
2019-04-04T17:16:41.323Z,252.00
2019-04-04T17:17:41.341Z,272.00
2019-04-04T17:18:41.349Z,292.00
2019-04-04T17:19:41.418Z,296.00
2019-04-04T17:20:41.665Z,292.00
2019-04-04T17:21:41.384Z,280.00
2019-04-04T17:22:41.429Z,272.00
2019-04-04T17:24:41.419Z,272.00
2019-04-04T17:25:41.453Z,272.00
2019-04-04T17:26:41.443Z,268.00
2019-04-04T17:27:41.467Z,260.00
2019-04-04T17:28:41.468Z,248.00
2019-04-04T17:29:41.853Z,236.00
2019-04-04T17:30:41.491Z,220.00
2019-04-04T17:31:41.579Z,208.00
2019-04-04T17:32:41.517Z,192.00
2019-04-04T17:33:41.534Z,180.00
2019-04-04T17:34:41.539Z,172.00
2019-04-04T17:35:41.909Z,164.00
2019-04-04T17:36:41.570Z,164.00
2019-04-04T17:37:41.578Z,156.00
2019-04-04T17:38:41.643Z,156.00
2019-04-04T17:39:41.648Z,148.00
2019-04-04T17:40:41.612Z,144.00
2019-04-04T17:41:41.625Z,132.00
2019-04-04T17:42:41.761Z,128.00
2019-04-04T17:43:41.687Z,116.00
2019-04-04T17:44:42.145Z,112.00
2019-04-04T17:45:41.679Z,96.00
2019-04-04T17:46:41.689Z,92.00
2019-04-04T17:47:41.986Z,80.00
2019-04-04T17:48:41.710Z,72.00
2019-04-04T17:49:42.053Z,64.00
2019-04-04T17:50:41.736Z,52.00
2019-04-04T17:51:42.153Z,48.00
2019-04-04T17:52:41.759Z,40.00
2019-04-04T17:53:42.290Z,36.00
2019-04-04T17:54:41.825Z,32.00
2019-04-04T17:55:41.834Z,32.00
2019-04-04T17:56:42.310Z,28.00
2019-04-04T17:57:42.019Z,24.00
2019-04-04T17:58:41.840Z,20.00
2019-04-04T17:59:41.900Z,20.00
2019-04-04T18:00:41.864Z,16.00
2019-04-04T18:01:41.867Z,16.00
2019-04-04T18:02:41.879Z,16.00
2019-04-04T18:03:41.892Z,12.00
2019-04-04T18:04:48.350Z,16.00
2019-04-04T18:05:41.919Z,12.00
2019-04-04T18:06:41.928Z,12.00
2019-04-04T18:07:41.945Z,12.00
2019-04-04T18:08:41.957Z,8.00
2019-04-04T18:09:41.980Z,8.00
2019-04-04T18:10:41.977Z,8.00
2019-04-04T18:11:41.992Z,8.00
2019-04-04T18:12:42.009Z,8.00
2019-04-04T18:13:42.020Z,4.00
2019-04-04T18:14:42.078Z,8.00
2019-04-04T18:15:42.164Z,4.00
2019-04-04T18:16:42.119Z,4.00
2019-04-04T18:17:42.066Z,4.00
2019-04-04T18:18:42.077Z,4.00
2019-04-04T18:19:42.094Z,4.00
2019-04-04T18:20:42.098Z,8.00
2019-04-04T18:21:42.113Z,4.00
2019-04-04T18:22:42.124Z,4.00
2019-04-04T18:23:42.135Z,4.00
2019-04-04T18:24:42.159Z,4.00
2019-04-04T18:25:42.169Z,4.00
2019-04-04T18:26:42.174Z,4.00
2019-04-04T18:27:42.795Z,4.00
2019-04-04T18:28:42.281Z,4.00
2019-04-04T18:29:42.208Z,0.00
2019-04-04T18:30:42.224Z,4.00
2019-04-04T18:31:42.233Z,4.00
2019-04-04T18:32:42.248Z,4.00
2019-04-04T18:33:42.437Z,4.00
2019-04-04T18:34:42.266Z,4.00
2019-04-04T18:35:42.287Z,4.00
2019-04-04T18:37:42.559Z,4.00
2019-04-04T18:38:42.507Z,4.00
2019-04-04T18:39:42.331Z,4.00
2019-04-04T18:40:42.340Z,4.00
2019-04-04T18:41:42.353Z,4.00
2019-04-04T18:42:52.490Z,4.00
2019-04-04T18:43:42.391Z,4.00
2019-04-04T18:44:42.391Z,4.00
2019-04-04T18:45:42.414Z,4.00
2019-04-04T18:46:42.434Z,4.00
2019-04-04T18:47:42.954Z,4.00
2019-04-04T18:48:42.439Z,4.00
2019-04-04T18:49:42.451Z,4.00
2019-04-04T18:50:42.773Z,4.00
2019-04-04T18:51:42.807Z,4.00
2019-04-04T18:52:42.559Z,4.00
2019-04-04T18:53:42.498Z,4.00
2019-04-04T18:54:42.512Z,4.00
2019-04-04T18:55:42.533Z,4.00
2019-04-04T18:56:42.538Z,4.00
2019-04-04T18:57:42.546Z,4.00
2019-04-04T18:58:42.576Z,4.00
2019-04-04T18:59:42.580Z,4.00
2019-04-04T19:00:42.593Z,4.00
2019-04-04T19:01:43.042Z,4.00
2019-04-04T19:02:42.606Z,4.00
2019-04-04T19:03:42.990Z,4.00
2019-04-04T19:04:42.661Z,4.00
2019-04-04T19:05:42.647Z,4.00
2019-04-04T19:06:42.658Z,4.00
2019-04-04T19:07:42.663Z,4.00
2019-04-04T19:08:42.680Z,4.00
2019-04-04T19:09:42.691Z,4.00
2019-04-04T19:10:42.730Z,4.00
2019-04-04T19:11:42.710Z,4.00
2019-04-04T19:12:42.722Z,4.00